Loretto, Minnesota
Current Conditions -  °F | °C
As of 4:15 AM on Thursday 23 Oct 2014 (Local Time) from KCFE Reporting Station
Overcast Overcast  
Wind Chill: 53°   Ceiling: 500
Heat Index: 53°   Visibility: 7mi
Dew Point: 50°   Wind: 3mph
Humidity: 92%   Direction: 200°SSW
Pressure: 29.98"   Gusts: NA
Location:  45.06°N, 93.64°W
Report Text: KCFE 230915Z AUTO 20003KT 7SM OVC005 11/10 A2998 RMK AO2 T01140102
Loading
Personal Weather Stations






























Interactive Weather Map
Tropical Storm Tracking
New forecast layout! Learn more

10-Day Weather Forecast

Advertisements
Track Severe Weather on mobile